NY/NJ Local METAR Reports

 

KNYC - NYC/Central Park, NY, USA
Distance from Hoboken: NE 4mi, 7km
Updated: 11/20/2019 3:51pm
Clear
Clear
 Wind from NW
Wind: NW 13 mph , 20 km/h, Gust: 22 mph , 35 km/h
Temperature: 46°F , 8°C
Wind Chill: 40°F , 4°C
Dew Point: 27°F , -3°C
Humidity: 46%
Barometer: 29.99 inHg , 1015.6 hPa
Clouds: Clear
Visibility: 10 miles , 16 km
2019/11/20 20:51 KNYC 202051Z AUTO 31011G19KT 10SM CLR 08/M03 A2999 RMK AO2 SLP147 T00781028 53007 $
KEWR - Newark, NJ, USA
Distance from Hoboken: WSW 8mi, 13km
Updated: 11/20/2019 3:51pm
Mostly cloudy
Mostly cloudy
 Wind from WNW
Wind: WNW 18 mph , 30 km/h
Temperature: 46°F , 8°C
Wind Chill: 39°F , 4°C
Dew Point: 28°F , -2°C
Humidity: 50%
Barometer: 29.98 inHg , 1015.2 hPa
Clouds: Mostly cloudy
Visibility: 10 miles , 16 km
Cloud details: Few Clouds 3500 ft
Mostly cloudy 7000 ft
Mostly cloudy 16000 ft
Mostly cloudy 25000 ft
2019/11/20 20:51 KEWR 202051Z 30016KT 10SM FEW035 BKN070 BKN160 BKN250 08/M02 A2998 RMK AO2 SLP152 T00781017 53010 $
 
KLGA - NYC/La Guardia, NY, USA
Distance from Hoboken: ENE 8mi, 13km
Updated: 11/20/2019 3:51pm
Mostly cloudy
Mostly cloudy
 Wind from WNW
Wind: WNW 20 mph , 31 km/h
Temperature: 48°F , 9°C
Wind Chill: 41°F , 5°C
Dew Point: 28°F , -2°C
Humidity: 46%
Barometer: 29.97 inHg , 1014.9 hPa
Clouds: Mostly cloudy
Visibility: 10 miles , 16 km
Cloud details: Few Clouds 4300 ft
Partly cloudy 7500 ft
Mostly cloudy 25000 ft
2019/11/20 20:51 KLGA 202051Z 30017KT 10SM FEW043 SCT075 BKN250 09/M02 A2997 RMK AO2 SLP147 T00891022 53009
KTEB - Teterboro, NJ, USA
Distance from Hoboken: N 9mi, 14km
Updated: 11/20/2019 3:51pm
Few Clouds
Few Clouds
 Wind from NW
Wind: NW 14 mph , 22 km/h
Temperature: 46°F , 8°C
Wind Chill: 40°F , 4°C
Dew Point: 30°F , -1°C
Humidity: 53%
Barometer: 29.97 inHg , 1014.9 hPa
Clouds: Few Clouds
Visibility: 10 miles , 16 km
Cloud details: Few Clouds 7500 ft
2019/11/20 20:51 KTEB 202051Z 32012KT 10SM FEW075 08/M01 A2997 RMK AO2 SLP149 T00781011 53009
 
KJFK - NYC/Jfk Arpt, NY, USA
Distance from Hoboken: ESE 16mi, 25km
Updated: 11/20/2019 3:51pm
Mostly cloudy
Mostly cloudy
 Wind from N
Wind: N 12 mph , 19 km/h
Temperature: 46°F , 8°C
Wind Chill: 40°F , 4°C
Dew Point: 25°F , -4°C
Humidity: 43%
Barometer: 29.97 inHg , 1014.9 hPa
Clouds: Mostly cloudy
Visibility: 10 miles , 16 km
Cloud details: Few Clouds 3300 ft
Partly cloudy 5000 ft
Mostly cloudy 7500 ft
Mostly cloudy 17000 ft
Mostly cloudy 25000 ft
2019/11/20 20:51 KJFK 202051Z 35010KT 10SM FEW033 SCT050 BKN075 BKN170 BKN250 08/M04 A2997 RMK AO2 SLP148 T00831039 53006 $
KCDW - Caldwell, NJ, USA
Distance from Hoboken: NW 16mi, 26km
Updated: 11/20/2019 3:53pm
Overcast
Overcast
 Wind from NW
Wind: NW 9 mph , 15 km/h
Temperature: 46°F , 8°C
Wind Chill: 41°F , 5°C
Dew Point: 28°F , -2°C
Humidity: 50%
Barometer: 30.00 inHg , 1015.9 hPa
Clouds: Overcast
Visibility: 10 miles , 16 km
Cloud details: Overcast 7500 ft
2019/11/20 20:53 KCDW 202053Z AUTO 32008KT 10SM OVC075 08/M02 A3000 RMK AO2 SLP165 T00781017 53015
 
KMMU - Morristown Muni, NJ, USA
Distance from Hoboken: W 20mi, 33km
Updated: 11/20/2019 3:45pm
Overcast
Overcast
 Wind from N
Wind: N 7 mph , 11 km/h, Gust: 20 mph , 31 km/h
Temperature: 45°F , 7°C
Wind Chill: 41°F , 5°C
Dew Point: 32°F , 0°C
Humidity: 61%
Barometer: 30.00 inHg , 1015.9 hPa
Clouds: Overcast
Visibility: 10 miles , 16 km
Cloud details: Partly cloudy 3500 ft
Overcast 7500 ft
2019/11/20 20:45 KMMU 202045Z 35006G17KT 10SM SCT035 OVC075 07/00 A3000
KHPN - White Plains, NY, USA
Distance from Hoboken: NE 28mi, 46km
Updated: 11/20/2019 3:56pm
Partly cloudy
Partly cloudy
 Wind from NNW
Wind: NNW 13 mph , 20 km/h
Temperature: 43°F , 6°C
Wind Chill: 36°F , 2°C
Dew Point: 28°F , -2°C
Humidity: 57%
Barometer: 29.95 inHg , 1014.2 hPa
Clouds: Partly cloudy
Visibility: 10 miles , 16 km
Cloud details: Partly cloudy 8000 ft
2019/11/20 20:56 KHPN 202056Z 34011KT 10SM SCT080 06/M02 A2995 RMK AO2 SLP147 T00611022 53008
 
KFRG - Farmingdale, NY, USA
Distance from Hoboken: E 32mi, 52km
Updated: 11/20/2019 3:53pm
Overcast
Overcast
 Wind from N
Wind: N 9 mph , 15 km/h
Temperature: 45°F , 7°C
Wind Chill: 40°F , 4°C
Dew Point: 30°F , -1°C
Humidity: 57%
Barometer: 29.96 inHg , 1014.6 hPa
Clouds: Overcast
Visibility: 10 miles , 16 km
Cloud details: Overcast 7000 ft
2019/11/20 20:53 KFRG 202053Z AUTO 35008KT 10SM OVC070 07/M01 A2996 RMK AO2 SLP145 T00721006 52010
KSMQ - Somerville, NJ, USA
Distance from Hoboken: WSW 34mi, 55km
Updated: 11/20/2019 3:53pm
Overcast
Overcast
 Wind from NNW
Wind: NNW 13 mph , 20 km/h, Gust: 23 mph , 37 km/h
Temperature: 46°F , 8°C
Wind Chill: 40°F , 4°C
Dew Point: 30°F , -1°C
Humidity: 53%
Barometer: 29.99 inHg , 1015.6 hPa
Clouds: Overcast
Visibility: 10 miles , 16 km
Cloud details: Overcast 7500 ft
2019/11/20 20:53 KSMQ 202053Z AUTO 33011G20KT 10SM OVC075 08/M01 A2999 RMK AO2 SLP156 T00781006 51011 $
 
KBLM - Belmar/Farmdale, NJ, USA
Distance from Hoboken: S 40mi, 64km
Updated: 11/20/2019 3:56pm
Few Clouds
Few Clouds
 Wind from WNW
Wind: WNW 16 mph , 26 km/h
Temperature: 46°F , 8°C
Wind Chill: 39°F , 4°C
Dew Point: 30°F , -1°C
Humidity: 53%
Barometer: 29.98 inHg , 1015.2 hPa
Clouds: Few Clouds
Visibility: 10 miles , 16 km
Cloud details: Few Clouds 7000 ft
2019/11/20 20:56 KBLM 202056Z AUTO 30014KT 10SM FEW070 08/M01 A2998 RMK AO2 PK WND 29026/2008 SLP154 T00781011 53011
K12N - Andover, NJ, USA
Distance from Hoboken: WNW 41mi, 67km
Updated: 11/20/2019 3:54pm

 Wind from NNW
Wind: NNW 5 mph , 7 km/h
Temperature: 43°F , 6°C
Wind Chill: 40°F , 4°C
Dew Point: 30°F , -1°C
Humidity: 61%
Barometer: 30.01 inHg , 1016.3 hPa
2019/11/20 20:54 K12N 202054Z AUTO 34004KT 06/M01 A3001 RMK AO1 SLP168 T00611006 53012
 
KFWN - Sussex, NJ, USA
Distance from Hoboken: NW 45mi, 72km
Updated: 11/20/2019 3:53pm
Overcast
Overcast
 Wind from varies
Wind: varies 7 mph , 11 km/h
Temperature: 43°F , 6°C
Wind Chill: 39°F , 4°C
Dew Point: 28°F , -2°C
Humidity: 57%
Barometer: 30.00 inHg , 1015.9 hPa
Clouds: Overcast
Visibility: 10 miles , 16 km
Cloud details: Partly cloudy 3400 ft
Overcast 7500 ft
2019/11/20 20:53 KFWN 202053Z AUTO VRB06KT 10SM SCT034 OVC075 06/M02 A3000 RMK AO2 SLP162 T00611017 53012 $
KISP - Islip, NY, USA
Distance from Hoboken: E 49mi, 79km
Updated: 11/20/2019 3:56pm
Mostly cloudy
Mostly cloudy
 Wind from NNW
Wind: NNW 16 mph , 26 km/h
Temperature: 43°F , 6°C
Wind Chill: 35°F , 2°C
Dew Point: 32°F , 0°C
Humidity: 66%
Barometer: 29.95 inHg , 1014.2 hPa
Clouds: Mostly cloudy
Visibility: 10 miles , 16 km
Cloud details: Few Clouds 2500 ft
Mostly cloudy 10000 ft
Mostly cloudy 25000 ft
2019/11/20 20:56 KISP 202056Z 33014KT 10SM FEW025 BKN100 BKN250 06/00 A2995 RMK AO2 SLP142 60000 T00560000 53013